createdAt,value
2022-09-20T00:00:45.674Z,67.29
2022-09-20T00:03:14.601Z,66.66
2022-09-20T00:05:43.907Z,66.65
2022-09-20T00:08:13.978Z,66.46
2022-09-20T00:10:42.998Z,66.15
2022-09-20T00:13:12.941Z,66.24
2022-09-20T00:15:48.170Z,66.17
2022-09-20T00:18:15.318Z,65.99
2022-09-20T00:20:50.121Z,66.16
2022-09-20T00:23:17.334Z,65.96
2022-09-20T00:25:44.244Z,65.80
2022-09-20T00:28:11.818Z,65.85
2022-09-20T00:30:39.283Z,65.93
2022-09-20T00:33:06.335Z,66.17
2022-09-20T00:35:33.367Z,65.97
2022-09-20T00:38:00.298Z,66.10
2022-09-20T00:40:27.399Z,66.56
2022-09-20T00:42:54.597Z,66.51
2022-09-20T00:45:24.718Z,66.36
2022-09-20T00:48:31.324Z,66.52
2022-09-20T00:51:09.413Z,66.48
2022-09-20T00:53:44.995Z,66.56
2022-09-20T00:56:16.718Z,66.13
2022-09-20T00:59:02.111Z,66.22
2022-09-20T01:01:29.425Z,65.93
2022-09-20T01:03:57.296Z,65.99
2022-09-20T01:06:24.750Z,65.71
2022-09-20T01:08:56.306Z,65.79
2022-09-20T01:11:23.382Z,66.10
2022-09-20T01:13:50.728Z,65.72
2022-09-20T01:16:19.355Z,65.96
2022-09-20T01:18:48.295Z,66.38
2022-09-20T01:21:17.161Z,65.63
2022-09-20T01:24:13.545Z,65.71
2022-09-20T01:26:56.541Z,65.78
2022-09-20T01:30:00.712Z,65.29
2022-09-20T01:32:44.747Z,65.50
2022-09-20T01:35:12.533Z,65.56
2022-09-20T01:38:00.337Z,65.76
2022-09-20T01:40:36.197Z,65.61
2022-09-20T01:43:14.884Z,65.95
2022-09-20T01:45:50.777Z,65.50
2022-09-20T01:48:39.289Z,65.77
2022-09-20T01:51:15.072Z,65.73
2022-09-20T01:53:53.974Z,65.55
2022-09-20T01:56:35.977Z,65.60
2022-09-20T01:59:37.090Z,65.56
2022-09-20T02:02:22.894Z,65.75
2022-09-20T02:05:11.426Z,65.77
2022-09-20T02:08:15.090Z,65.71
2022-09-20T02:10:50.333Z,66.02
2022-09-20T02:13:38.852Z,66.01
2022-09-20T02:16:11.637Z,65.79
2022-09-20T02:19:35.792Z,65.74
2022-09-20T02:22:14.617Z,65.97
2022-09-20T02:25:04.697Z,66.08
2022-09-20T02:27:43.701Z,65.67
2022-09-20T02:30:28.422Z,65.64
2022-09-20T02:33:09.927Z,65.92
2022-09-20T02:35:47.984Z,65.90
2022-09-20T02:38:33.229Z,65.63
2022-09-20T02:41:12.027Z,65.76
2022-09-20T02:44:06.749Z,66.42
2022-09-20T02:47:11.122Z,66.23
2022-09-20T02:50:12.238Z,65.80
2022-09-20T02:52:52.323Z,65.91
2022-09-20T02:55:26.262Z,65.71
2022-09-20T02:58:10.088Z,65.63
2022-09-20T03:01:02.903Z,65.60
2022-09-20T03:04:07.166Z,65.58
2022-09-20T03:06:48.632Z,65.55
2022-09-20T03:09:22.567Z,65.96
2022-09-20T03:12:14.495Z,65.95
2022-09-20T03:14:50.027Z,65.76
2022-09-20T03:17:30.865Z,65.56
2022-09-20T03:20:22.150Z,65.37
2022-09-20T03:22:59.158Z,65.24
2022-09-20T03:25:31.874Z,65.21
2022-09-20T03:28:44.940Z,65.08
2022-09-20T03:31:36.251Z,65.06
2022-09-20T03:34:03.262Z,65.26
2022-09-20T03:36:49.242Z,65.58
2022-09-20T03:39:25.046Z,65.79
2022-09-20T03:42:11.723Z,65.76
2022-09-20T03:44:47.818Z,65.27
2022-09-20T03:47:18.147Z,65.79
2022-09-20T03:50:02.310Z,65.54
2022-09-20T03:53:00.215Z,65.50
2022-09-20T03:55:47.001Z,65.52
2022-09-20T03:58:32.530Z,65.54
2022-09-20T04:01:36.685Z,65.65
2022-09-20T04:04:30.326Z,65.40
2022-09-20T04:07:09.457Z,64.99
2022-09-20T04:10:14.884Z,65.14
2022-09-20T04:13:05.468Z,65.54
2022-09-20T04:15:51.261Z,65.55
2022-09-20T04:18:40.732Z,65.27
2022-09-20T04:21:36.036Z,65.16
2022-09-20T04:24:03.150Z,65.41
2022-09-20T04:26:33.028Z,65.63
2022-09-20T04:29:55.274Z,65.62
2022-09-20T04:32:43.541Z,65.50
2022-09-20T04:36:20.077Z,65.31
2022-09-20T04:38:58.672Z,65.31
2022-09-20T04:41:52.681Z,65.48
2022-09-20T04:44:57.033Z,65.18
2022-09-20T04:47:48.829Z,65.44
2022-09-20T04:50:33.832Z,65.70
2022-09-20T04:53:21.717Z,65.42
2022-09-20T04:55:56.291Z,65.95
2022-09-20T04:58:26.063Z,66.02
2022-09-20T05:01:16.689Z,65.69
2022-09-20T05:04:05.459Z,65.48
2022-09-20T05:06:53.533Z,65.47
2022-09-20T05:10:07.686Z,65.28
2022-09-20T05:12:35.711Z,65.13
2022-09-20T05:15:17.852Z,65.81
2022-09-20T05:18:10.196Z,65.76
2022-09-20T05:21:15.363Z,65.38
2022-09-20T05:23:57.385Z,65.27
2022-09-20T05:26:54.475Z,65.38
2022-09-20T05:29:45.254Z,65.31
2022-09-20T05:32:24.572Z,65.04
2022-09-20T05:35:31.429Z,63.76
2022-09-20T05:38:19.555Z,64.61
2022-09-20T05:41:13.944Z,64.53
2022-09-20T05:44:01.202Z,64.32
2022-09-20T05:46:50.724Z,63.25
2022-09-20T05:49:52.240Z,63.95
2022-09-20T05:52:38.000Z,63.55
2022-09-20T05:55:49.616Z,63.98
2022-09-20T05:58:43.366Z,63.97
2022-09-20T06:01:21.932Z,64.04
2022-09-20T06:04:13.924Z,63.99
2022-09-20T06:06:52.577Z,63.77
2022-09-20T06:09:54.803Z,63.54
2022-09-20T06:12:35.875Z,63.13
2022-09-20T06:15:11.957Z,63.01
2022-09-20T06:17:44.317Z,63.85
2022-09-20T06:20:31.412Z,64.02
2022-09-20T06:23:03.509Z,63.29
2022-09-20T06:25:41.249Z,62.82
2022-09-20T06:28:12.617Z,62.73
2022-09-20T06:30:48.108Z,62.93
2022-09-20T06:33:21.136Z,63.27
2022-09-20T06:35:53.782Z,62.16
2022-09-20T06:39:13.743Z,62.76
2022-09-20T06:41:42.187Z,62.53
2022-09-20T06:44:11.935Z,62.13
2022-09-20T06:46:41.419Z,61.88
2022-09-20T06:49:09.739Z,62.18
2022-09-20T06:51:39.000Z,61.82
2022-09-20T06:54:11.489Z,61.46
2022-09-20T06:56:38.608Z,61.33
2022-09-20T06:59:10.547Z,61.93
2022-09-20T07:01:38.177Z,61.48
2022-09-20T07:04:09.834Z,61.02
2022-09-20T07:06:36.970Z,59.76
2022-09-20T07:09:05.120Z,59.73
2022-09-20T07:11:35.750Z,58.88
2022-09-20T07:14:03.618Z,58.85
2022-09-20T07:16:30.744Z,59.16
2022-09-20T07:18:58.066Z,57.88
2022-09-20T07:21:25.148Z,57.25
2022-09-20T07:23:54.090Z,57.67
2022-09-20T07:26:22.624Z,57.34
2022-09-20T07:28:50.360Z,57.65
2022-09-20T07:31:23.294Z,58.32
2022-09-20T07:33:50.459Z,57.79
2022-09-20T07:36:18.041Z,58.17
2022-09-20T07:38:50.536Z,58.46
2022-09-20T07:41:19.217Z,57.94
2022-09-20T07:43:47.224Z,58.42
2022-09-20T07:46:14.341Z,58.49
2022-09-20T07:48:41.756Z,58.54
2022-09-20T07:51:12.872Z,58.78
2022-09-20T07:53:40.694Z,57.90
2022-09-20T07:56:12.711Z,58.54
2022-09-20T07:58:40.456Z,58.09
2022-09-20T08:01:09.930Z,58.30
2022-09-20T08:03:38.091Z,58.78
2022-09-20T08:06:08.192Z,58.41
2022-09-20T08:08:37.920Z,58.47
2022-09-20T08:11:11.203Z,58.31
2022-09-20T08:16:28.219Z,58.33
2022-09-20T08:18:58.958Z,57.95
2022-09-20T08:21:29.486Z,57.32
2022-09-20T08:23:56.780Z,57.99
2022-09-20T08:26:24.899Z,56.05
2022-09-20T08:28:54.149Z,56.00
2022-09-20T08:31:24.496Z,56.63
2022-09-20T08:33:53.143Z,55.02
2022-09-20T08:36:23.203Z,55.47
2022-09-20T08:41:54.590Z,55.68
2022-09-20T08:44:35.677Z,54.94
2022-09-20T08:47:23.817Z,56.24
2022-09-20T08:49:56.947Z,55.02
2022-09-20T08:52:37.340Z,55.04
2022-09-20T08:55:20.801Z,54.90
2022-09-20T08:57:54.430Z,54.79
2022-09-20T09:00:25.466Z,53.83
2022-09-20T09:02:56.667Z,52.39
2022-09-20T09:05:32.202Z,54.04
2022-09-20T09:08:25.729Z,51.29
2022-09-20T09:10:56.485Z,52.51
2022-09-20T09:13:54.297Z,53.29
2022-09-20T09:16:30.188Z,52.56
2022-09-20T09:19:34.510Z,50.45
2022-09-20T09:22:04.194Z,51.67
2022-09-20T09:24:31.595Z,52.08
2022-09-20T09:27:17.553Z,52.81
2022-09-20T09:29:55.665Z,52.55
2022-09-20T09:32:29.540Z,52.23
2022-09-20T09:35:20.201Z,51.52
2022-09-20T09:37:59.754Z,52.29
2022-09-20T09:40:28.535Z,51.79
2022-09-20T09:43:01.027Z,51.85
2022-09-20T09:45:36.439Z,51.66
2022-09-20T09:48:19.280Z,53.11
2022-09-20T09:50:47.446Z,52.50
2022-09-20T09:53:22.650Z,52.74
2022-09-20T09:55:55.396Z,52.77
2022-09-20T09:58:44.937Z,52.72
2022-09-20T10:01:33.525Z,52.66
2022-09-20T10:04:14.397Z,53.04
2022-09-20T10:07:01.378Z,52.97
2022-09-20T10:10:12.390Z,52.99
2022-09-20T10:13:05.840Z,53.49
2022-09-20T10:15:54.312Z,53.00
2022-09-20T10:18:27.189Z,54.00
2022-09-20T10:21:33.061Z,54.43
2022-09-20T10:24:30.694Z,54.94
2022-09-20T10:27:19.567Z,55.00
2022-09-20T10:29:53.192Z,54.44
2022-09-20T10:32:37.609Z,54.93
2022-09-20T10:35:04.545Z,54.94
2022-09-20T10:37:37.659Z,54.72
2022-09-20T10:40:16.738Z,54.86
2022-09-20T10:43:07.684Z,55.25
2022-09-20T10:46:30.852Z,55.62
2022-09-20T10:49:23.788Z,55.20
2022-09-20T10:52:12.880Z,55.42
2022-09-20T10:55:06.375Z,55.40
2022-09-20T10:57:41.204Z,54.79
2022-09-20T11:00:17.370Z,54.91
2022-09-20T11:03:16.824Z,54.76
2022-09-20T11:06:09.137Z,55.20
2022-09-20T11:08:38.427Z,54.31
2022-09-20T11:11:17.423Z,54.40
2022-09-20T11:13:48.703Z,53.39
2022-09-20T11:16:31.107Z,53.79
2022-09-20T11:19:14.212Z,53.16
2022-09-20T11:21:51.224Z,53.82
2022-09-20T11:24:18.175Z,54.23
2022-09-20T11:26:54.664Z,54.17
2022-09-20T11:29:35.932Z,53.84
2022-09-20T11:32:22.830Z,54.05
2022-09-20T11:35:27.733Z,54.47
2022-09-20T11:38:05.048Z,54.31
2022-09-20T11:40:36.969Z,54.36
2022-09-20T11:43:07.154Z,54.86
2022-09-20T11:45:37.524Z,54.61
2022-09-20T11:48:18.253Z,55.04
2022-09-20T11:51:07.192Z,55.69
2022-09-20T11:54:01.937Z,55.88
2022-09-20T11:56:34.799Z,56.90
2022-09-20T11:59:19.319Z,57.31
2022-09-20T12:01:46.395Z,57.50
2022-09-20T12:04:33.658Z,57.27
2022-09-20T12:07:18.036Z,57.07
2022-09-20T12:09:59.130Z,57.00
2022-09-20T12:12:47.218Z,56.28
2022-09-20T12:15:36.722Z,56.30
2022-09-20T12:18:09.610Z,56.62
2022-09-20T12:20:39.016Z,57.16
2022-09-20T12:23:43.140Z,57.00
2022-09-20T12:26:13.572Z,57.85
2022-09-20T12:28:43.530Z,58.26
2022-09-20T12:31:23.227Z,57.01
2022-09-20T12:34:11.945Z,56.51
2022-09-20T12:36:55.682Z,56.20
2022-09-20T12:39:29.926Z,57.01
2022-09-20T12:42:12.281Z,56.12
2022-09-20T12:44:51.181Z,55.90
2022-09-20T12:47:25.419Z,55.88
2022-09-20T12:50:12.857Z,56.10
2022-09-20T12:52:57.291Z,55.85
2022-09-20T12:55:27.685Z,55.80
2022-09-20T12:58:02.135Z,56.15
2022-09-20T13:00:38.150Z,56.77
2022-09-20T13:03:36.331Z,56.36
2022-09-20T13:06:16.600Z,56.29
2022-09-20T13:08:49.608Z,56.22
2022-09-20T13:11:41.956Z,55.74
2022-09-20T13:14:22.792Z,56.15
2022-09-20T13:16:54.700Z,56.15
2022-09-20T13:19:30.095Z,56.66
2022-09-20T13:22:02.968Z,56.92
2022-09-20T13:24:42.573Z,57.17
2022-09-20T13:27:19.280Z,56.20
2022-09-20T13:29:47.470Z,56.69
2022-09-20T13:32:27.565Z,56.96
2022-09-20T13:35:12.641Z,57.88
2022-09-20T13:37:47.982Z,57.39
2022-09-20T13:40:42.488Z,56.24
2022-09-20T13:43:32.773Z,57.42
2022-09-20T13:46:24.240Z,57.86
2022-09-20T13:49:14.218Z,58.61
2022-09-20T13:51:41.553Z,56.96
2022-09-20T13:54:40.865Z,57.18
2022-09-20T13:57:17.929Z,56.95
2022-09-20T13:59:45.737Z,56.85
2022-09-20T14:02:33.137Z,57.41
2022-09-20T14:05:04.083Z,57.55
2022-09-20T14:07:32.479Z,58.07
2022-09-20T14:10:00.399Z,57.27
2022-09-20T14:12:28.635Z,57.40
2022-09-20T14:14:59.112Z,58.43
2022-09-20T14:17:30.557Z,58.35
2022-09-20T14:19:58.436Z,58.04
2022-09-20T14:22:29.225Z,59.37
2022-09-20T14:24:59.618Z,59.07
2022-09-20T14:27:26.732Z,60.19
2022-09-20T14:29:54.897Z,60.50
2022-09-20T14:32:34.182Z,59.68
2022-09-20T14:35:07.340Z,59.59
2022-09-20T14:37:42.565Z,58.74
2022-09-20T14:40:24.476Z,59.78
2022-09-20T14:42:56.323Z,59.28
2022-09-20T14:45:35.377Z,59.56
2022-09-20T14:48:11.747Z,57.96
2022-09-20T14:50:44.283Z,58.00
2022-09-20T14:53:11.433Z,57.67
2022-09-20T14:55:42.419Z,57.65
2022-09-20T14:58:14.981Z,58.09
2022-09-20T15:00:51.518Z,57.23
2022-09-20T15:03:26.908Z,57.55
2022-09-20T15:05:54.582Z,57.70
2022-09-20T15:08:22.233Z,56.96
2022-09-20T15:10:49.671Z,56.88
2022-09-20T15:13:17.229Z,56.73
2022-09-20T15:15:47.362Z,56.81
2022-09-20T15:18:36.008Z,57.19
2022-09-20T15:21:03.337Z,58.13
2022-09-20T15:23:30.551Z,57.70
2022-09-20T15:25:58.498Z,58.05
2022-09-20T15:28:26.969Z,57.49
2022-09-20T15:30:54.397Z,57.50
2022-09-20T15:33:22.503Z,57.30
2022-09-20T15:35:50.325Z,57.24
2022-09-20T15:38:18.927Z,57.71
2022-09-20T15:40:48.424Z,57.31
2022-09-20T15:43:19.926Z,58.12
2022-09-20T15:45:56.113Z,57.69
2022-09-20T15:48:26.024Z,58.03
2022-09-20T15:51:06.012Z,57.77
2022-09-20T15:53:36.363Z,57.92
2022-09-20T15:56:13.862Z,58.30
2022-09-20T15:59:03.762Z,58.57
2022-09-20T16:01:34.150Z,58.11
2022-09-20T16:04:16.024Z,58.06
2022-09-20T16:06:45.052Z,58.75
2022-09-20T16:09:13.192Z,58.85
2022-09-20T16:11:41.354Z,58.54
2022-09-20T16:14:08.815Z,58.87
2022-09-20T16:16:40.301Z,59.33
2022-09-20T16:19:22.520Z,59.99
2022-09-20T16:21:58.068Z,59.02
2022-09-20T16:24:31.117Z,59.02
2022-09-20T16:26:59.178Z,59.02
2022-09-20T16:29:27.069Z,59.41
2022-09-20T16:31:55.124Z,60.32
2022-09-20T16:34:30.880Z,60.72
2022-09-20T16:37:15.824Z,60.03
2022-09-20T16:39:43.166Z,60.31
2022-09-20T16:42:13.428Z,60.27
2022-09-20T16:44:43.169Z,59.86
2022-09-20T16:47:22.404Z,59.76
2022-09-20T16:49:50.388Z,59.08
2022-09-20T16:52:18.168Z,59.67
2022-09-20T16:54:45.913Z,59.63
2022-09-20T16:57:15.693Z,60.21
2022-09-20T16:59:43.299Z,60.10
2022-09-20T17:02:13.969Z,60.23
2022-09-20T17:04:43.867Z,60.55
2022-09-20T17:07:14.666Z,59.80
2022-09-20T17:09:45.338Z,59.95
2022-09-20T17:12:14.015Z,60.83
2022-09-20T17:14:41.110Z,60.18
2022-09-20T17:17:08.483Z,60.69
2022-09-20T17:19:35.988Z,60.95
2022-09-20T17:22:06.104Z,61.05
2022-09-20T17:24:33.779Z,61.22
2022-09-20T17:27:01.654Z,61.32
2022-09-20T17:29:29.024Z,61.54
2022-09-20T17:32:00.135Z,61.43
2022-09-20T17:34:29.585Z,61.40
2022-09-20T17:36:57.458Z,62.04
2022-09-20T17:39:25.246Z,62.00
2022-09-20T17:41:53.043Z,62.23
2022-09-20T17:44:20.303Z,62.71
2022-09-20T17:46:50.080Z,62.53
2022-09-20T17:49:20.461Z,63.23
2022-09-20T17:51:53.290Z,63.08
2022-09-20T17:54:22.059Z,63.09
2022-09-20T17:56:51.275Z,63.41
2022-09-20T17:59:20.470Z,63.29
2022-09-20T18:01:51.406Z,63.14
2022-09-20T18:04:21.052Z,63.83
2022-09-20T18:06:51.062Z,63.50
2022-09-20T18:09:25.066Z,63.65
2022-09-20T18:11:54.453Z,64.01
2022-09-20T18:14:24.149Z,63.73
2022-09-20T18:17:01.025Z,64.15
2022-09-20T18:19:36.708Z,63.76
2022-09-20T18:22:04.246Z,63.85
2022-09-20T18:24:31.889Z,63.94
2022-09-20T18:27:01.039Z,63.98
2022-09-20T18:29:29.501Z,64.43
2022-09-20T18:31:58.048Z,64.22
2022-09-20T18:34:30.812Z,64.25
2022-09-20T18:36:59.919Z,64.34
2022-09-20T18:39:29.125Z,64.60
2022-09-20T18:41:56.588Z,64.87
2022-09-20T18:44:24.481Z,65.29
2022-09-20T18:46:55.311Z,65.48
2022-09-20T18:49:22.958Z,65.16
2022-09-20T18:51:50.416Z,65.75
2022-09-20T18:54:19.312Z,65.79
2022-09-20T18:56:49.102Z,65.93
2022-09-20T18:59:20.761Z,65.91
2022-09-20T19:01:51.341Z,65.79
2022-09-20T19:04:52.366Z,65.83
2022-09-20T19:07:28.205Z,66.24
2022-09-20T19:10:13.414Z,66.23
2022-09-20T19:12:56.809Z,66.32
2022-09-20T19:15:57.594Z,66.73
2022-09-20T19:18:49.344Z,66.69
2022-09-20T19:21:29.800Z,66.62
2022-09-20T19:24:05.669Z,66.58
2022-09-20T19:26:38.825Z,66.69
2022-09-20T19:29:19.839Z,66.23
2022-09-20T19:31:54.542Z,66.48
2022-09-20T19:34:27.348Z,66.24
2022-09-20T19:37:18.918Z,66.39
2022-09-20T19:40:15.885Z,66.55
2022-09-20T19:43:03.217Z,66.84
2022-09-20T19:46:01.102Z,66.76
2022-09-20T19:48:56.600Z,66.67
2022-09-20T19:51:24.281Z,66.94
2022-09-20T19:53:53.645Z,67.13
2022-09-20T19:56:24.825Z,67.26
2022-09-20T19:58:54.253Z,67.04
2022-09-20T20:01:23.159Z,67.10
2022-09-20T20:03:51.465Z,67.27
2022-09-20T20:06:50.648Z,66.95
2022-09-20T20:09:44.988Z,66.97
2022-09-20T20:12:25.696Z,66.90
2022-09-20T20:14:59.129Z,66.95
2022-09-20T20:17:41.337Z,67.02
2022-09-20T20:20:17.524Z,67.17
2022-09-20T20:23:12.869Z,67.25
2022-09-20T20:26:19.418Z,67.61
2022-09-20T20:28:46.761Z,67.29
2022-09-20T20:31:14.325Z,67.48
2022-09-20T20:33:41.426Z,67.87
2022-09-20T20:36:12.110Z,68.18
2022-09-20T20:38:43.797Z,67.64
2022-09-20T20:41:15.261Z,67.89
2022-09-20T20:43:43.474Z,67.87
2022-09-20T20:46:14.415Z,67.70
2022-09-20T20:48:42.502Z,67.65
2022-09-20T20:51:14.776Z,67.53
2022-09-20T20:53:50.721Z,67.52
2022-09-20T20:56:25.984Z,67.50
2022-09-20T20:58:53.187Z,67.01
2022-09-20T21:01:24.282Z,67.51
2022-09-20T21:03:53.542Z,67.30
2022-09-20T21:06:22.000Z,67.26
2022-09-20T21:08:49.925Z,67.21
2022-09-20T21:11:23.520Z,67.33
2022-09-20T21:13:57.237Z,67.31
2022-09-20T21:16:26.930Z,67.74
2022-09-20T21:18:53.922Z,67.73
2022-09-20T21:21:26.135Z,67.76
2022-09-20T21:23:55.599Z,67.65
2022-09-20T21:26:24.564Z,67.80
2022-09-20T21:28:54.094Z,67.85
2022-09-20T21:31:23.249Z,67.72
2022-09-20T21:33:50.595Z,68.03
2022-09-20T21:36:21.000Z,67.76
2022-09-20T21:38:48.427Z,67.90
2022-09-20T21:41:27.452Z,67.87
2022-09-20T21:43:56.268Z,67.75
2022-09-20T21:46:24.269Z,67.76
2022-09-20T21:48:51.366Z,67.64
2022-09-20T21:51:20.523Z,67.71
2022-09-20T21:53:49.585Z,67.91
2022-09-20T21:56:17.697Z,67.68
2022-09-20T21:58:46.072Z,67.82
2022-09-20T22:01:41.449Z,67.60
2022-09-20T22:04:11.339Z,67.69
2022-09-20T22:06:43.755Z,67.79
2022-09-20T22:09:16.064Z,67.74
2022-09-20T22:11:48.276Z,67.90
2022-09-20T22:14:18.296Z,68.13
2022-09-20T22:16:46.741Z,68.18
2022-09-20T22:19:16.501Z,68.67
2022-09-20T22:21:46.497Z,68.55
2022-09-20T22:24:15.003Z,68.19
2022-09-20T22:26:44.065Z,68.22
2022-09-20T22:29:11.769Z,68.36
2022-09-20T22:31:46.988Z,68.21
2022-09-20T22:34:16.631Z,68.44
2022-09-20T22:36:44.597Z,68.20
2022-09-20T22:39:12.771Z,67.92
2022-09-20T22:41:41.377Z,68.17
2022-09-20T22:44:08.825Z,68.08
2022-09-20T22:46:36.660Z,68.10
2022-09-20T22:49:08.396Z,68.47
2022-09-20T22:51:35.975Z,68.60
2022-09-20T22:54:08.343Z,68.13
2022-09-20T22:56:36.356Z,68.17
2022-09-20T22:59:09.350Z,68.07
2022-09-20T23:01:38.902Z,68.34
2022-09-20T23:04:08.601Z,68.28
2022-09-20T23:06:42.056Z,68.63
2022-09-20T23:09:12.246Z,68.15
2022-09-20T23:11:42.128Z,68.31
2022-09-20T23:14:12.108Z,68.16
2022-09-20T23:16:39.611Z,68.10
2022-09-20T23:19:07.874Z,68.39
2022-09-20T23:21:36.615Z,68.07
2022-09-20T23:24:06.199Z,68.10
2022-09-20T23:26:35.837Z,67.82
2022-09-20T23:29:11.146Z,68.48
2022-09-20T23:31:40.454Z,68.04
2022-09-20T23:34:08.203Z,68.19
2022-09-20T23:36:38.259Z,67.98
2022-09-20T23:39:06.765Z,68.08
2022-09-20T23:41:34.199Z,67.87
2022-09-20T23:44:01.246Z,67.93
2022-09-20T23:46:28.273Z,68.28
2022-09-20T23:48:55.567Z,68.29
2022-09-20T23:51:25.050Z,68.50
2022-09-20T23:53:53.559Z,68.36
2022-09-20T23:56:22.077Z,68.28
2022-09-20T23:58:50.479Z,68.22
